sensor_id;sensor_type;location;lat;lon;timestamp;P1;durP1;ratioP1;P2;durP2;ratioP2
41683;SDS011;27369;52.030;4.586;2022-11-25T00:01:57;13.13;;;3.42;;
41683;SDS011;27369;52.030;4.586;2022-11-25T00:04:22;15.18;;;3.33;;
41683;SDS011;27369;52.030;4.586;2022-11-25T00:06:48;20.90;;;3.70;;
41683;SDS011;27369;52.030;4.586;2022-11-25T00:09:13;17.88;;;4.05;;
41683;SDS011;27369;52.030;4.586;2022-11-25T00:11:40;23.67;;;4.18;;
41683;SDS011;27369;52.030;4.586;2022-11-25T00:14:07;22.52;;;3.88;;
41683;SDS011;27369;52.030;4.586;2022-11-25T00:16:35;20.02;;;3.65;;
41683;SDS011;27369;52.030;4.586;2022-11-25T00:19:01;21.55;;;4.90;;
41683;SDS011;27369;52.030;4.586;2022-11-25T00:21:28;22.05;;;3.90;;
41683;SDS011;27369;52.030;4.586;2022-11-25T00:23:57;17.58;;;3.85;;
41683;SDS011;27369;52.030;4.586;2022-11-25T00:26:24;18.35;;;4.07;;
41683;SDS011;27369;52.030;4.586;2022-11-25T00:28:51;15.93;;;3.72;;
41683;SDS011;27369;52.030;4.586;2022-11-25T00:31:21;19.80;;;3.90;;
41683;SDS011;27369;52.030;4.586;2022-11-25T00:33:52;21.90;;;3.38;;
41683;SDS011;27369;52.030;4.586;2022-11-25T00:36:23;10.90;;;4.32;;
41683;SDS011;27369;52.030;4.586;2022-11-25T00:38:52;18.17;;;4.55;;
41683;SDS011;27369;52.030;4.586;2022-11-25T00:41:21;13.00;;;3.58;;
41683;SDS011;27369;52.030;4.586;2022-11-25T00:44:07;16.10;;;4.18;;
41683;SDS011;27369;52.030;4.586;2022-11-25T00:46:52;15.80;;;3.92;;
41683;SDS011;27369;52.030;4.586;2022-11-25T00:49:18;14.00;;;4.85;;
41683;SDS011;27369;52.030;4.586;2022-11-25T00:51:43;18.30;;;4.45;;
41683;SDS011;27369;52.030;4.586;2022-11-25T00:54:08;15.35;;;4.63;;
41683;SDS011;27369;52.030;4.586;2022-11-25T00:56:34;13.43;;;4.18;;
41683;SDS011;27369;52.030;4.586;2022-11-25T00:58:59;18.73;;;4.00;;
41683;SDS011;27369;52.030;4.586;2022-11-25T01:01:25;19.35;;;4.28;;
41683;SDS011;27369;52.030;4.586;2022-11-25T01:03:50;23.38;;;4.88;;
41683;SDS011;27369;52.030;4.586;2022-11-25T01:08:42;20.67;;;4.20;;
41683;SDS011;27369;52.030;4.586;2022-11-25T01:11:09;20.25;;;4.65;;
41683;SDS011;27369;52.030;4.586;2022-11-25T01:13:36;19.23;;;4.40;;
41683;SDS011;27369;52.030;4.586;2022-11-25T01:16:02;20.95;;;4.38;;
41683;SDS011;27369;52.030;4.586;2022-11-25T01:18:30;15.80;;;4.30;;
41683;SDS011;27369;52.030;4.586;2022-11-25T01:21:10;19.10;;;5.00;;
41683;SDS011;27369;52.030;4.586;2022-11-25T01:23:41;18.42;;;4.50;;
41683;SDS011;27369;52.030;4.586;2022-11-25T01:26:08;20.00;;;5.40;;
41683;SDS011;27369;52.030;4.586;2022-11-25T01:28:35;16.35;;;5.00;;
41683;SDS011;27369;52.030;4.586;2022-11-25T01:31:05;13.30;;;4.30;;
41683;SDS011;27369;52.030;4.586;2022-11-25T01:33:32;16.77;;;4.22;;
41683;SDS011;27369;52.030;4.586;2022-11-25T01:36:05;15.02;;;4.20;;
41683;SDS011;27369;52.030;4.586;2022-11-25T01:38:33;17.80;;;5.07;;
41683;SDS011;27369;52.030;4.586;2022-11-25T01:40:59;20.00;;;3.97;;
41683;SDS011;27369;52.030;4.586;2022-11-25T01:45:52;15.35;;;3.67;;
41683;SDS011;27369;52.030;4.586;2022-11-25T01:48:26;14.98;;;4.03;;
41683;SDS011;27369;52.030;4.586;2022-11-25T01:50:57;16.80;;;4.75;;
41683;SDS011;27369;52.030;4.586;2022-11-25T01:53:23;18.75;;;4.10;;
41683;SDS011;27369;52.030;4.586;2022-11-25T01:55:57;13.60;;;3.22;;
41683;SDS011;27369;52.030;4.586;2022-11-25T01:58:29;14.65;;;3.15;;
41683;SDS011;27369;52.030;4.586;2022-11-25T02:01:00;18.23;;;2.67;;
41683;SDS011;27369;52.030;4.586;2022-11-25T02:03:36;18.77;;;4.07;;
41683;SDS011;27369;52.030;4.586;2022-11-25T02:08:37;19.13;;;3.17;;
41683;SDS011;27369;52.030;4.586;2022-11-25T02:11:04;18.30;;;3.03;;
41683;SDS011;27369;52.030;4.586;2022-11-25T02:13:31;15.77;;;3.20;;
41683;SDS011;27369;52.030;4.586;2022-11-25T02:15:57;19.73;;;3.30;;
41683;SDS011;27369;52.030;4.586;2022-11-25T02:18:22;17.20;;;3.23;;
41683;SDS011;27369;52.030;4.586;2022-11-25T02:20:50;11.88;;;3.35;;
41683;SDS011;27369;52.030;4.586;2022-11-25T02:23:29;14.02;;;2.65;;
41683;SDS011;27369;52.030;4.586;2022-11-25T02:26:16;15.13;;;2.63;;
41683;SDS011;27369;52.030;4.586;2022-11-25T02:28:42;10.07;;;2.00;;
41683;SDS011;27369;52.030;4.586;2022-11-25T02:31:07;9.05;;;2.38;;
41683;SDS011;27369;52.030;4.586;2022-11-25T02:33:33;12.07;;;2.70;;
41683;SDS011;27369;52.030;4.586;2022-11-25T02:35:59;12.63;;;3.33;;
41683;SDS011;27369;52.030;4.586;2022-11-25T02:38:41;14.70;;;2.90;;
41683;SDS011;27369;52.030;4.586;2022-11-25T02:41:10;19.70;;;4.25;;
41683;SDS011;27369;52.030;4.586;2022-11-25T02:43:37;13.43;;;2.53;;
41683;SDS011;27369;52.030;4.586;2022-11-25T02:46:04;13.82;;;2.38;;
41683;SDS011;27369;52.030;4.586;2022-11-25T02:48:34;10.80;;;2.15;;
41683;SDS011;27369;52.030;4.586;2022-11-25T02:51:01;12.13;;;2.08;;
41683;SDS011;27369;52.030;4.586;2022-11-25T02:53:27;11.68;;;1.83;;
41683;SDS011;27369;52.030;4.586;2022-11-25T02:55:53;13.20;;;1.92;;
41683;SDS011;27369;52.030;4.586;2022-11-25T02:58:18;8.38;;;1.73;;
41683;SDS011;27369;52.030;4.586;2022-11-25T03:00:44;9.55;;;2.03;;
41683;SDS011;27369;52.030;4.586;2022-11-25T03:03:11;10.38;;;1.70;;
41683;SDS011;27369;52.030;4.586;2022-11-25T03:05:36;8.23;;;1.60;;
41683;SDS011;27369;52.030;4.586;2022-11-25T03:08:02;12.57;;;2.00;;
41683;SDS011;27369;52.030;4.586;2022-11-25T03:12:54;5.47;;;1.77;;
41683;SDS011;27369;52.030;4.586;2022-11-25T03:15:19;8.13;;;1.58;;
41683;SDS011;27369;52.030;4.586;2022-11-25T03:17:45;11.80;;;2.33;;
41683;SDS011;27369;52.030;4.586;2022-11-25T03:20:11;9.63;;;1.80;;
41683;SDS011;27369;52.030;4.586;2022-11-25T03:22:38;5.95;;;1.40;;
41683;SDS011;27369;52.030;4.586;2022-11-25T03:25:04;8.93;;;1.83;;
41683;SDS011;27369;52.030;4.586;2022-11-25T03:27:32;5.88;;;1.83;;
41683;SDS011;27369;52.030;4.586;2022-11-25T03:29:58;5.30;;;1.35;;
41683;SDS011;27369;52.030;4.586;2022-11-25T03:32:23;9.13;;;1.50;;
41683;SDS011;27369;52.030;4.586;2022-11-25T03:34:49;7.03;;;1.35;;
41683;SDS011;27369;52.030;4.586;2022-11-25T03:37:14;6.53;;;1.33;;
41683;SDS011;27369;52.030;4.586;2022-11-25T03:39:39;7.70;;;2.08;;
41683;SDS011;27369;52.030;4.586;2022-11-25T03:42:05;6.40;;;1.33;;
41683;SDS011;27369;52.030;4.586;2022-11-25T03:44:30;5.45;;;1.60;;
41683;SDS011;27369;52.030;4.586;2022-11-25T03:46:55;5.07;;;1.60;;
41683;SDS011;27369;52.030;4.586;2022-11-25T03:49:21;5.70;;;1.55;;
41683;SDS011;27369;52.030;4.586;2022-11-25T03:51:47;12.23;;;2.45;;
41683;SDS011;27369;52.030;4.586;2022-11-25T03:54:13;5.85;;;1.58;;
41683;SDS011;27369;52.030;4.586;2022-11-25T03:56:38;7.07;;;1.55;;
41683;SDS011;27369;52.030;4.586;2022-11-25T03:59:04;6.93;;;1.67;;
41683;SDS011;27369;52.030;4.586;2022-11-25T04:01:29;6.60;;;1.73;;
41683;SDS011;27369;52.030;4.586;2022-11-25T04:03:55;5.32;;;1.38;;
41683;SDS011;27369;52.030;4.586;2022-11-25T04:06:20;5.68;;;1.60;;
41683;SDS011;27369;52.030;4.586;2022-11-25T04:08:48;7.47;;;1.10;;
41683;SDS011;27369;52.030;4.586;2022-11-25T04:11:14;5.05;;;1.42;;
41683;SDS011;27369;52.030;4.586;2022-11-25T04:13:39;4.93;;;1.25;;
41683;SDS011;27369;52.030;4.586;2022-11-25T04:16:04;7.15;;;1.65;;
41683;SDS011;27369;52.030;4.586;2022-11-25T04:18:30;3.90;;;1.00;;
41683;SDS011;27369;52.030;4.586;2022-11-25T04:20:55;8.48;;;2.35;;
41683;SDS011;27369;52.030;4.586;2022-11-25T04:23:22;3.35;;;1.02;;
41683;SDS011;27369;52.030;4.586;2022-11-25T04:25:48;5.40;;;1.38;;
41683;SDS011;27369;52.030;4.586;2022-11-25T04:28:14;6.45;;;2.03;;
41683;SDS011;27369;52.030;4.586;2022-11-25T04:30:40;4.15;;;1.20;;
41683;SDS011;27369;52.030;4.586;2022-11-25T04:33:06;5.47;;;0.90;;
41683;SDS011;27369;52.030;4.586;2022-11-25T04:35:31;4.75;;;1.00;;
41683;SDS011;27369;52.030;4.586;2022-11-25T04:37:57;8.50;;;1.23;;
41683;SDS011;27369;52.030;4.586;2022-11-25T04:40:22;3.25;;;0.68;;
41683;SDS011;27369;52.030;4.586;2022-11-25T04:42:48;5.25;;;1.00;;
41683;SDS011;27369;52.030;4.586;2022-11-25T04:45:14;5.83;;;1.10;;
41683;SDS011;27369;52.030;4.586;2022-11-25T04:47:41;5.68;;;1.38;;
41683;SDS011;27369;52.030;4.586;2022-11-25T04:50:10;3.95;;;0.80;;
41683;SDS011;27369;52.030;4.586;2022-11-25T04:52:39;5.22;;;0.90;;
41683;SDS011;27369;52.030;4.586;2022-11-25T04:55:05;2.97;;;0.90;;
41683;SDS011;27369;52.030;4.586;2022-11-25T04:57:31;5.55;;;1.15;;
41683;SDS011;27369;52.030;4.586;2022-11-25T04:59:56;3.85;;;0.77;;
41683;SDS011;27369;52.030;4.586;2022-11-25T05:02:22;2.70;;;0.93;;
41683;SDS011;27369;52.030;4.586;2022-11-25T05:04:50;5.18;;;1.20;;
41683;SDS011;27369;52.030;4.586;2022-11-25T05:07:18;3.47;;;1.13;;
41683;SDS011;27369;52.030;4.586;2022-11-25T05:09:44;4.55;;;1.17;;
41683;SDS011;27369;52.030;4.586;2022-11-25T05:12:12;8.00;;;1.42;;
41683;SDS011;27369;52.030;4.586;2022-11-25T05:14:39;4.13;;;1.38;;
41683;SDS011;27369;52.030;4.586;2022-11-25T05:17:05;6.10;;;2.03;;
41683;SDS011;27369;52.030;4.586;2022-11-25T05:19:31;7.47;;;1.77;;
41683;SDS011;27369;52.030;4.586;2022-11-25T05:21:59;6.47;;;1.25;;
41683;SDS011;27369;52.030;4.586;2022-11-25T05:24:25;8.45;;;1.40;;
41683;SDS011;27369;52.030;4.586;2022-11-25T05:26:51;5.38;;;1.50;;
41683;SDS011;27369;52.030;4.586;2022-11-25T05:29:17;4.57;;;1.30;;
41683;SDS011;27369;52.030;4.586;2022-11-25T05:31:42;6.68;;;1.75;;
41683;SDS011;27369;52.030;4.586;2022-11-25T05:34:08;6.63;;;1.50;;
41683;SDS011;27369;52.030;4.586;2022-11-25T05:36:33;3.72;;;1.33;;
41683;SDS011;27369;52.030;4.586;2022-11-25T05:38:59;6.07;;;1.38;;
41683;SDS011;27369;52.030;4.586;2022-11-25T05:41:25;4.15;;;1.10;;
41683;SDS011;27369;52.030;4.586;2022-11-25T05:43:51;4.70;;;1.60;;
41683;SDS011;27369;52.030;4.586;2022-11-25T05:46:16;7.70;;;1.60;;
41683;SDS011;27369;52.030;4.586;2022-11-25T05:48:42;7.47;;;1.50;;
41683;SDS011;27369;52.030;4.586;2022-11-25T05:51:07;3.85;;;1.80;;
41683;SDS011;27369;52.030;4.586;2022-11-25T05:53:34;11.82;;;2.25;;
41683;SDS011;27369;52.030;4.586;2022-11-25T05:56:00;5.70;;;1.85;;
41683;SDS011;27369;52.030;4.586;2022-11-25T05:58:28;9.65;;;2.33;;
41683;SDS011;27369;52.030;4.586;2022-11-25T06:00:54;11.57;;;1.77;;
41683;SDS011;27369;52.030;4.586;2022-11-25T06:05:49;5.47;;;1.92;;
41683;SDS011;27369;52.030;4.586;2022-11-25T06:08:15;6.75;;;2.58;;
41683;SDS011;27369;52.030;4.586;2022-11-25T06:10:40;11.98;;;3.00;;
41683;SDS011;27369;52.030;4.586;2022-11-25T06:13:06;8.07;;;2.20;;
41683;SDS011;27369;52.030;4.586;2022-11-25T06:17:57;7.17;;;2.27;;
41683;SDS011;27369;52.030;4.586;2022-11-25T06:20:23;7.90;;;2.10;;
41683;SDS011;27369;52.030;4.586;2022-11-25T06:22:48;6.45;;;2.35;;
41683;SDS011;27369;52.030;4.586;2022-11-25T06:25:14;6.63;;;1.95;;
41683;SDS011;27369;52.030;4.586;2022-11-25T06:27:40;7.75;;;1.88;;
41683;SDS011;27369;52.030;4.586;2022-11-25T06:30:05;13.43;;;2.40;;
41683;SDS011;27369;52.030;4.586;2022-11-25T06:32:31;7.28;;;1.83;;
41683;SDS011;27369;52.030;4.586;2022-11-25T06:34:57;10.27;;;2.13;;
41683;SDS011;27369;52.030;4.586;2022-11-25T06:37:22;6.40;;;2.40;;
41683;SDS011;27369;52.030;4.586;2022-11-25T06:39:47;8.43;;;2.20;;
41683;SDS011;27369;52.030;4.586;2022-11-25T06:42:13;7.70;;;2.60;;
41683;SDS011;27369;52.030;4.586;2022-11-25T06:44:38;10.50;;;2.30;;
41683;SDS011;27369;52.030;4.586;2022-11-25T06:47:04;10.45;;;2.63;;
41683;SDS011;27369;52.030;4.586;2022-11-25T06:49:29;8.90;;;2.15;;
41683;SDS011;27369;52.030;4.586;2022-11-25T06:51:54;9.37;;;2.37;;
41683;SDS011;27369;52.030;4.586;2022-11-25T06:54:20;8.88;;;2.67;;
41683;SDS011;27369;52.030;4.586;2022-11-25T06:56:45;11.05;;;2.78;;
41683;SDS011;27369;52.030;4.586;2022-11-25T06:59:16;8.30;;;2.80;;
41683;SDS011;27369;52.030;4.586;2022-11-25T07:01:42;8.93;;;2.88;;
41683;SDS011;27369;52.030;4.586;2022-11-25T07:04:07;13.50;;;3.03;;
41683;SDS011;27369;52.030;4.586;2022-11-25T07:06:33;8.95;;;2.60;;
41683;SDS011;27369;52.030;4.586;2022-11-25T07:08:59;11.25;;;2.83;;
41683;SDS011;27369;52.030;4.586;2022-11-25T07:13:53;10.65;;;2.90;;
41683;SDS011;27369;52.030;4.586;2022-11-25T07:16:21;9.10;;;2.97;;
41683;SDS011;27369;52.030;4.586;2022-11-25T07:18:46;8.05;;;2.78;;
41683;SDS011;27369;52.030;4.586;2022-11-25T07:21:13;7.63;;;2.20;;
41683;SDS011;27369;52.030;4.586;2022-11-25T07:23:41;10.30;;;2.58;;
41683;SDS011;27369;52.030;4.586;2022-11-25T07:26:14;9.23;;;2.50;;
41683;SDS011;27369;52.030;4.586;2022-11-25T07:28:45;12.90;;;3.17;;
41683;SDS011;27369;52.030;4.586;2022-11-25T07:34:19;6.65;;;2.10;;
41683;SDS011;27369;52.030;4.586;2022-11-25T07:36:47;9.15;;;2.20;;
41683;SDS011;27369;52.030;4.586;2022-11-25T07:39:15;6.90;;;2.05;;
41683;SDS011;27369;52.030;4.586;2022-11-25T07:41:42;8.10;;;2.13;;
41683;SDS011;27369;52.030;4.586;2022-11-25T07:44:09;11.93;;;2.35;;
41683;SDS011;27369;52.030;4.586;2022-11-25T07:46:39;5.70;;;1.50;;
41683;SDS011;27369;52.030;4.586;2022-11-25T07:49:07;8.40;;;2.05;;
41683;SDS011;27369;52.030;4.586;2022-11-25T07:51:42;5.80;;;1.55;;
41683;SDS011;27369;52.030;4.586;2022-11-25T07:54:12;6.72;;;1.65;;
41683;SDS011;27369;52.030;4.586;2022-11-25T07:56:39;10.20;;;1.77;;
41683;SDS011;27369;52.030;4.586;2022-11-25T07:59:07;4.80;;;1.40;;
41683;SDS011;27369;52.030;4.586;2022-11-25T08:01:36;7.57;;;1.88;;
41683;SDS011;27369;52.030;4.586;2022-11-25T08:04:01;6.18;;;1.80;;
41683;SDS011;27369;52.030;4.586;2022-11-25T08:06:27;7.72;;;1.60;;
41683;SDS011;27369;52.030;4.586;2022-11-25T08:08:54;6.70;;;1.42;;
41683;SDS011;27369;52.030;4.586;2022-11-25T08:11:23;8.05;;;1.38;;
41683;SDS011;27369;52.030;4.586;2022-11-25T08:13:50;10.32;;;1.65;;
41683;SDS011;27369;52.030;4.586;2022-11-25T08:16:17;6.72;;;1.35;;
41683;SDS011;27369;52.030;4.586;2022-11-25T08:18:44;5.30;;;1.40;;
41683;SDS011;27369;52.030;4.586;2022-11-25T08:21:11;7.28;;;2.22;;
41683;SDS011;27369;52.030;4.586;2022-11-25T08:23:38;6.90;;;1.65;;
41683;SDS011;27369;52.030;4.586;2022-11-25T08:26:06;10.88;;;2.35;;
41683;SDS011;27369;52.030;4.586;2022-11-25T08:28:33;5.65;;;1.40;;
41683;SDS011;27369;52.030;4.586;2022-11-25T08:31:03;8.23;;;1.42;;
41683;SDS011;27369;52.030;4.586;2022-11-25T08:33:38;8.90;;;1.63;;
41683;SDS011;27369;52.030;4.586;2022-11-25T08:36:05;7.55;;;1.63;;
41683;SDS011;27369;52.030;4.586;2022-11-25T08:38:31;7.88;;;1.80;;
41683;SDS011;27369;52.030;4.586;2022-11-25T08:40:56;8.07;;;1.45;;
41683;SDS011;27369;52.030;4.586;2022-11-25T08:43:22;6.53;;;1.25;;
41683;SDS011;27369;52.030;4.586;2022-11-25T08:45:48;5.50;;;1.40;;
41683;SDS011;27369;52.030;4.586;2022-11-25T08:48:15;7.90;;;1.55;;
41683;SDS011;27369;52.030;4.586;2022-11-25T08:50:47;6.90;;;1.30;;
41683;SDS011;27369;52.030;4.586;2022-11-25T08:53:15;9.18;;;1.65;;
41683;SDS011;27369;52.030;4.586;2022-11-25T08:55:40;10.82;;;2.03;;
41683;SDS011;27369;52.030;4.586;2022-11-25T08:58:06;10.48;;;1.70;;
41683;SDS011;27369;52.030;4.586;2022-11-25T09:00:34;7.93;;;1.33;;
41683;SDS011;27369;52.030;4.586;2022-11-25T09:03:00;7.40;;;1.40;;
41683;SDS011;27369;52.030;4.586;2022-11-25T09:05:26;6.38;;;1.90;;
41683;SDS011;27369;52.030;4.586;2022-11-25T09:07:51;6.00;;;1.40;;
41683;SDS011;27369;52.030;4.586;2022-11-25T09:10:16;11.45;;;1.75;;
41683;SDS011;27369;52.030;4.586;2022-11-25T09:12:42;9.65;;;1.35;;
41683;SDS011;27369;52.030;4.586;2022-11-25T09:15:08;13.05;;;1.80;;
41683;SDS011;27369;52.030;4.586;2022-11-25T09:17:34;4.97;;;1.13;;
41683;SDS011;27369;52.030;4.586;2022-11-25T09:20:01;7.75;;;1.60;;
41683;SDS011;27369;52.030;4.586;2022-11-25T09:22:29;5.65;;;1.40;;
41683;SDS011;27369;52.030;4.586;2022-11-25T09:24:55;7.57;;;1.60;;
41683;SDS011;27369;52.030;4.586;2022-11-25T09:27:20;9.23;;;1.92;;
41683;SDS011;27369;52.030;4.586;2022-11-25T09:29:46;8.88;;;1.88;;
41683;SDS011;27369;52.030;4.586;2022-11-25T09:32:11;7.10;;;1.58;;
41683;SDS011;27369;52.030;4.586;2022-11-25T09:34:36;8.68;;;1.50;;
41683;SDS011;27369;52.030;4.586;2022-11-25T09:37:02;7.18;;;1.48;;
41683;SDS011;27369;52.030;4.586;2022-11-25T09:39:27;8.02;;;1.10;;
41683;SDS011;27369;52.030;4.586;2022-11-25T09:41:57;9.57;;;2.20;;
41683;SDS011;27369;52.030;4.586;2022-11-25T09:48:20;4.65;;;1.13;;
41683;SDS011;27369;52.030;4.586;2022-11-25T09:54:01;7.97;;;2.00;;
41683;SDS011;27369;52.030;4.586;2022-11-25T09:56:37;8.63;;;1.98;;
41683;SDS011;27369;52.030;4.586;2022-11-25T09:59:24;13.98;;;2.00;;
41683;SDS011;27369;52.030;4.586;2022-11-25T10:02:23;13.30;;;1.60;;
41683;SDS011;27369;52.030;4.586;2022-11-25T10:04:58;6.78;;;2.42;;
41683;SDS011;27369;52.030;4.586;2022-11-25T10:07:33;10.80;;;1.80;;
41683;SDS011;27369;52.030;4.586;2022-11-25T10:10:04;14.60;;;1.90;;
41683;SDS011;27369;52.030;4.586;2022-11-25T10:12:31;9.32;;;1.45;;
41683;SDS011;27369;52.030;4.586;2022-11-25T10:15:05;7.80;;;1.33;;
41683;SDS011;27369;52.030;4.586;2022-11-25T10:17:48;8.88;;;1.77;;
41683;SDS011;27369;52.030;4.586;2022-11-25T10:20:21;11.82;;;1.73;;
41683;SDS011;27369;52.030;4.586;2022-11-25T10:23:22;14.63;;;2.47;;
41683;SDS011;27369;52.030;4.586;2022-11-25T10:25:44;13.65;;;2.33;;
41683;SDS011;27369;52.030;4.586;2022-11-25T10:28:21;9.00;;;2.13;;
41683;SDS011;27369;52.030;4.586;2022-11-25T10:30:53;12.50;;;2.43;;
41683;SDS011;27369;52.030;4.586;2022-11-25T10:33:43;14.98;;;2.70;;
41683;SDS011;27369;52.030;4.586;2022-11-25T10:36:13;16.13;;;2.60;;
41683;SDS011;27369;52.030;4.586;2022-11-25T10:41:27;14.63;;;2.10;;
41683;SDS011;27369;52.030;4.586;2022-11-25T10:43:57;6.85;;;1.48;;
41683;SDS011;27369;52.030;4.586;2022-11-25T10:46:27;7.22;;;1.77;;
41683;SDS011;27369;52.030;4.586;2022-11-25T10:49:18;8.57;;;1.42;;
41683;SDS011;27369;52.030;4.586;2022-11-25T10:51:56;16.58;;;3.53;;
41683;SDS011;27369;52.030;4.586;2022-11-25T11:01:50;9.88;;;2.22;;
41683;SDS011;27369;52.030;4.586;2022-11-25T11:04:16;11.82;;;2.25;;
41683;SDS011;27369;52.030;4.586;2022-11-25T11:06:44;9.20;;;1.40;;
41683;SDS011;27369;52.030;4.586;2022-11-25T11:12:33;10.60;;;1.67;;
41683;SDS011;27369;52.030;4.586;2022-11-25T11:15:17;10.10;;;2.35;;
41683;SDS011;27369;52.030;4.586;2022-11-25T11:17:45;12.48;;;3.15;;
41683;SDS011;27369;52.030;4.586;2022-11-25T11:22:48;8.70;;;1.38;;
41683;SDS011;27369;52.030;4.586;2022-11-25T11:25:32;17.15;;;2.65;;
41683;SDS011;27369;52.030;4.586;2022-11-25T11:27:59;15.43;;;2.40;;
41683;SDS011;27369;52.030;4.586;2022-11-25T11:30:30;11.73;;;1.50;;
41683;SDS011;27369;52.030;4.586;2022-11-25T11:33:04;9.30;;;1.83;;
41683;SDS011;27369;52.030;4.586;2022-11-25T11:35:51;11.98;;;2.15;;
41683;SDS011;27369;52.030;4.586;2022-11-25T11:38:33;8.35;;;1.63;;
41683;SDS011;27369;52.030;4.586;2022-11-25T11:41:07;11.50;;;1.85;;
41683;SDS011;27369;52.030;4.586;2022-11-25T11:43:55;11.82;;;1.83;;
41683;SDS011;27369;52.030;4.586;2022-11-25T11:51:32;8.98;;;1.95;;
41683;SDS011;27369;52.030;4.586;2022-11-25T11:54:17;13.70;;;2.13;;
41683;SDS011;27369;52.030;4.586;2022-11-25T11:57:21;10.32;;;1.77;;
41683;SDS011;27369;52.030;4.586;2022-11-25T12:00:04;12.48;;;2.55;;
41683;SDS011;27369;52.030;4.586;2022-11-25T12:02:50;12.38;;;1.98;;
41683;SDS011;27369;52.030;4.586;2022-11-25T12:05:25;8.95;;;1.95;;
41683;SDS011;27369;52.030;4.586;2022-11-25T12:10:31;10.77;;;2.00;;
41683;SDS011;27369;52.030;4.586;2022-11-25T12:21:02;16.75;;;2.55;;
41683;SDS011;27369;52.030;4.586;2022-11-25T12:23:50;6.53;;;1.65;;
41683;SDS011;27369;52.030;4.586;2022-11-25T12:26:24;10.65;;;1.88;;
41683;SDS011;27369;52.030;4.586;2022-11-25T12:28:56;13.32;;;1.48;;
41683;SDS011;27369;52.030;4.586;2022-11-25T12:31:27;10.00;;;2.05;;
41683;SDS011;27369;52.030;4.586;2022-11-25T12:34:20;9.32;;;2.10;;
41683;SDS011;27369;52.030;4.586;2022-11-25T12:36:51;12.98;;;2.63;;
41683;SDS011;27369;52.030;4.586;2022-11-25T12:39:25;14.40;;;2.22;;
41683;SDS011;27369;52.030;4.586;2022-11-25T12:42:11;9.73;;;2.20;;
41683;SDS011;27369;52.030;4.586;2022-11-25T12:47:27;10.40;;;1.48;;
41683;SDS011;27369;52.030;4.586;2022-11-25T12:49:53;11.27;;;1.98;;
41683;SDS011;27369;52.030;4.586;2022-11-25T12:57:55;12.88;;;2.70;;
41683;SDS011;27369;52.030;4.586;2022-11-25T13:16:46;15.45;;;2.30;;
41683;SDS011;27369;52.030;4.586;2022-11-25T13:19:16;13.55;;;3.45;;
41683;SDS011;27369;52.030;4.586;2022-11-25T13:21:56;13.15;;;2.15;;
41683;SDS011;27369;52.030;4.586;2022-11-25T13:24:31;14.52;;;2.47;;
41683;SDS011;27369;52.030;4.586;2022-11-25T13:26:57;15.25;;;2.55;;
41683;SDS011;27369;52.030;4.586;2022-11-25T13:39:17;19.08;;;2.58;;
41683;SDS011;27369;52.030;4.586;2022-11-25T13:42:04;16.60;;;2.55;;
41683;SDS011;27369;52.030;4.586;2022-11-25T13:44:52;19.10;;;2.70;;
41683;SDS011;27369;52.030;4.586;2022-11-25T13:47:39;16.63;;;2.30;;
41683;SDS011;27369;52.030;4.586;2022-11-25T13:52:57;15.23;;;2.53;;
41683;SDS011;27369;52.030;4.586;2022-11-25T13:55:36;12.40;;;2.08;;
41683;SDS011;27369;52.030;4.586;2022-11-25T13:58:05;11.25;;;2.60;;
41683;SDS011;27369;52.030;4.586;2022-11-25T14:00:42;15.98;;;2.13;;
41683;SDS011;27369;52.030;4.586;2022-11-25T14:25:12;18.13;;;1.90;;
41683;SDS011;27369;52.030;4.586;2022-11-25T14:27:47;14.20;;;1.70;;
41683;SDS011;27369;52.030;4.586;2022-11-25T14:30:16;12.90;;;1.85;;
41683;SDS011;27369;52.030;4.586;2022-11-25T14:37:50;12.43;;;2.10;;
41683;SDS011;27369;52.030;4.586;2022-11-25T14:40:23;18.85;;;2.55;;
41683;SDS011;27369;52.030;4.586;2022-11-25T14:42:51;12.45;;;2.03;;
41683;SDS011;27369;52.030;4.586;2022-11-25T14:45:23;15.45;;;2.10;;
41683;SDS011;27369;52.030;4.586;2022-11-25T14:47:50;11.73;;;2.55;;
41683;SDS011;27369;52.030;4.586;2022-11-25T14:50:16;12.48;;;2.20;;
41683;SDS011;27369;52.030;4.586;2022-11-25T14:52:42;14.65;;;1.88;;
41683;SDS011;27369;52.030;4.586;2022-11-25T14:55:11;9.70;;;1.90;;
41683;SDS011;27369;52.030;4.586;2022-11-25T14:57:39;11.65;;;1.88;;
41683;SDS011;27369;52.030;4.586;2022-11-25T15:00:10;12.75;;;2.10;;
41683;SDS011;27369;52.030;4.586;2022-11-25T15:02:39;14.75;;;1.98;;
41683;SDS011;27369;52.030;4.586;2022-11-25T15:07:34;12.43;;;2.22;;
41683;SDS011;27369;52.030;4.586;2022-11-25T15:10:05;11.82;;;2.17;;
41683;SDS011;27369;52.030;4.586;2022-11-25T15:12:31;9.55;;;1.92;;
41683;SDS011;27369;52.030;4.586;2022-11-25T15:14:57;12.43;;;2.35;;
41683;SDS011;27369;52.030;4.586;2022-11-25T15:19:57;10.30;;;2.17;;
41683;SDS011;27369;52.030;4.586;2022-11-25T15:22:25;14.65;;;2.13;;
41683;SDS011;27369;52.030;4.586;2022-11-25T15:27:19;10.18;;;2.45;;
41683;SDS011;27369;52.030;4.586;2022-11-25T15:29:49;13.88;;;2.35;;
41683;SDS011;27369;52.030;4.586;2022-11-25T15:32:19;17.92;;;2.40;;
41683;SDS011;27369;52.030;4.586;2022-11-25T15:34:49;10.55;;;1.85;;
41683;SDS011;27369;52.030;4.586;2022-11-25T15:37:16;11.80;;;1.90;;
41683;SDS011;27369;52.030;4.586;2022-11-25T15:39:42;14.20;;;1.80;;
41683;SDS011;27369;52.030;4.586;2022-11-25T15:42:15;11.27;;;1.92;;
41683;SDS011;27369;52.030;4.586;2022-11-25T15:44:48;14.40;;;2.42;;
41683;SDS011;27369;52.030;4.586;2022-11-25T15:47:26;12.95;;;2.28;;
41683;SDS011;27369;52.030;4.586;2022-11-25T15:50:04;15.15;;;2.65;;
41683;SDS011;27369;52.030;4.586;2022-11-25T15:52:43;12.13;;;2.20;;
41683;SDS011;27369;52.030;4.586;2022-11-25T15:58:20;16.13;;;2.60;;
41683;SDS011;27369;52.030;4.586;2022-11-25T16:01:01;11.88;;;2.03;;
41683;SDS011;27369;52.030;4.586;2022-11-25T16:03:39;15.32;;;2.80;;
41683;SDS011;27369;52.030;4.586;2022-11-25T16:08:52;8.68;;;1.92;;
41683;SDS011;27369;52.030;4.586;2022-11-25T16:11:19;17.33;;;2.55;;
41683;SDS011;27369;52.030;4.586;2022-11-25T16:13:48;12.60;;;2.13;;
41683;SDS011;27369;52.030;4.586;2022-11-25T16:16:27;9.93;;;2.17;;
41683;SDS011;27369;52.030;4.586;2022-11-25T16:19:04;16.30;;;2.90;;
41683;SDS011;27369;52.030;4.586;2022-11-25T16:26:36;13.67;;;2.70;;
41683;SDS011;27369;52.030;4.586;2022-11-25T16:29:18;18.17;;;2.90;;
41683;SDS011;27369;52.030;4.586;2022-11-25T16:31:49;20.13;;;2.80;;
41683;SDS011;27369;52.030;4.586;2022-11-25T16:34:15;13.98;;;2.10;;
41683;SDS011;27369;52.030;4.586;2022-11-25T16:36:43;25.67;;;3.00;;
41683;SDS011;27369;52.030;4.586;2022-11-25T16:39:08;15.68;;;4.47;;
41683;SDS011;27369;52.030;4.586;2022-11-25T16:41:34;12.27;;;2.53;;
41683;SDS011;27369;52.030;4.586;2022-11-25T16:46:28;14.00;;;2.70;;
41683;SDS011;27369;52.030;4.586;2022-11-25T16:48:53;19.10;;;3.33;;
41683;SDS011;27369;52.030;4.586;2022-11-25T16:51:19;14.57;;;2.90;;
41683;SDS011;27369;52.030;4.586;2022-11-25T16:53:48;18.63;;;3.38;;
41683;SDS011;27369;52.030;4.586;2022-11-25T16:56:24;11.67;;;3.23;;
41683;SDS011;27369;52.030;4.586;2022-11-25T16:58:52;16.50;;;3.40;;
41683;SDS011;27369;52.030;4.586;2022-11-25T17:01:18;10.25;;;2.72;;
41683;SDS011;27369;52.030;4.586;2022-11-25T17:03:46;19.00;;;3.50;;
41683;SDS011;27369;52.030;4.586;2022-11-25T17:06:13;17.83;;;3.60;;
41683;SDS011;27369;52.030;4.586;2022-11-25T17:08:41;14.20;;;3.33;;
41683;SDS011;27369;52.030;4.586;2022-11-25T17:11:29;15.88;;;4.00;;
41683;SDS011;27369;52.030;4.586;2022-11-25T17:17:11;16.33;;;3.70;;
41683;SDS011;27369;52.030;4.586;2022-11-25T17:19:39;15.88;;;3.67;;
41683;SDS011;27369;52.030;4.586;2022-11-25T17:22:11;16.20;;;3.67;;